Airfield :
LOGIN :

Register | Disclaimer

   EN    FR    IT 

 










Legend :    VFR   Marginal VFR   IFR   Intensive IFR   Very Intensive IFR
Visi :
Ceiling :
>= 8 km
>= 3000ft
5 to 8 km
1000 to 3000 ft
1500m to 5 km
500 to 1000 ft
800 to 1500m
200 to 500 ft
< 800m
< 200 ft
Symbols :   Thunderstorms  Fog  Heavy snow  Heavy precipitations  Wind > 20 kt
SIGMETs :     Misc.  Thunderstorms  Icing  Turbulence  Mountain Waves  Volcanic Ashes







- Airport Elevation : 245 ft
- IATA code : BIQ
- Download approach charts


LFBZ - Biarritz

CURRENT METAR :
  • 171700Z AUTO 30003KT 260V340 CAVOK 25/16 Q1019 NOSIG

EXPIRED METARs :
  • 171630Z AUTO 33005KT 310V010 CAVOK 24/17 Q1020 NOSIG
  • 171600Z AUTO 33007KT CAVOK 25/17 Q1020 NOSIG
  • 171530Z AUTO 35009KT 320V030 CAVOK 24/18 Q1020 NOSIG
  • 171500Z AUTO 35009KT CAVOK 24/18 Q1020 NOSIG
  • 171430Z AUTO 34009KT 300V010 CAVOK 24/18 Q1020 NOSIG

TAF TAF LFBZ
Valid from the 17 at 12:00 until the 18 at 12:00 UTC


171100Z 1712/1812 30008KT CAVOK
BECMG 1804/1806 BKN012
PROB30
TEMPO 1807/1812 2000 -RADZ BKN005
No reported NOTAMs for that airfield.



MET'MAP, your aeronautical weather chart ! - Copyright ORBIFLY December 2007 - Disclaimer

ORBIFLY MET'MAP TEAM :

Programming & Development : Alexandra Zaïnal
Concept & Development : Baudouin d'Aumeries
Co-Development & Prog : Marc-Olivier Méhu
Technical & hardware support : Manuel Goepfert

Contact : metmap@orbifly.com




SOURCES & CREDITS :

   NOAA